createdAt,value
2019-06-04T00:01:26.208Z,0.86
2019-06-04T00:11:20.781Z,0.47
2019-06-04T00:21:20.865Z,0.08
2019-06-04T00:31:34.372Z,0.00
2019-06-04T00:41:20.821Z,0.01
2019-06-04T00:51:20.881Z,0.02
2019-06-04T01:01:20.945Z,0.02
2019-06-04T01:11:20.804Z,0.00
2019-06-04T01:21:20.791Z,0.10
2019-06-04T01:31:20.871Z,0.00
2019-06-04T01:41:20.964Z,0.02
2019-06-04T01:51:20.917Z,0.00
2019-06-04T02:01:20.888Z,0.00
2019-06-04T02:11:20.789Z,0.02
2019-06-04T02:21:20.862Z,0.00
2019-06-04T02:31:20.856Z,0.00
2019-06-04T02:41:20.826Z,0.05
2019-06-04T02:51:20.959Z,0.00
2019-06-04T03:01:20.881Z,0.02
2019-06-04T03:11:20.837Z,0.00
2019-06-04T03:21:20.997Z,0.00
2019-06-04T03:31:23.614Z,0.00
2019-06-04T03:41:21.554Z,0.00
2019-06-04T03:51:20.961Z,0.00
2019-06-04T04:01:20.881Z,0.00
2019-06-04T04:11:20.853Z,0.00
2019-06-04T04:21:21.055Z,0.01
2019-06-04T04:31:21.818Z,0.00
2019-06-04T04:41:21.920Z,0.01
2019-06-04T04:51:21.509Z,0.03
2019-06-04T05:01:21.829Z,0.01
2019-06-04T05:11:22.059Z,0.02
2019-06-04T05:21:21.378Z,0.03
2019-06-04T05:31:21.560Z,0.00
2019-06-04T05:41:22.109Z,0.18
2019-06-04T05:51:20.839Z,0.11
2019-06-04T06:01:20.915Z,0.44
2019-06-04T06:11:20.905Z,0.23
2019-06-04T06:21:20.930Z,0.60
2019-06-04T06:31:21.746Z,1.49
2019-06-04T06:41:20.994Z,1.22
2019-06-04T06:51:21.043Z,1.34
2019-06-04T07:01:22.798Z,2.33
2019-06-04T07:11:20.789Z,2.24
2019-06-04T07:21:21.026Z,2.35
2019-06-04T07:31:21.955Z,1.39
2019-06-04T07:41:20.977Z,1.24
2019-06-04T07:51:21.919Z,1.88
2019-06-04T08:01:24.223Z,2.21
2019-06-04T08:11:21.044Z,2.16
2019-06-04T08:21:20.999Z,2.80
2019-06-04T08:31:21.081Z,2.02
2019-06-04T08:41:21.777Z,1.91
2019-06-04T08:51:21.061Z,2.43
2019-06-04T09:01:20.988Z,2.00
2019-06-04T09:11:21.049Z,1.42
2019-06-04T09:21:20.994Z,2.93
2019-06-04T09:31:27.373Z,2.34
2019-06-04T09:41:21.865Z,2.69
2019-06-04T09:51:21.854Z,2.24
2019-06-04T10:01:21.921Z,2.62
2019-06-04T10:11:21.176Z,2.47
2019-06-04T10:21:21.055Z,2.26
2019-06-04T10:31:21.921Z,2.37
2019-06-04T18:06:02.160Z,2.60
2019-06-04T18:16:02.253Z,1.85
2019-06-04T18:26:02.228Z,1.54
2019-06-04T18:36:03.126Z,1.21
2019-06-04T18:46:02.279Z,1.75
2019-06-04T18:56:02.242Z,2.06
2019-06-04T19:06:02.218Z,2.24
2019-06-04T19:16:02.284Z,2.34
2019-06-04T19:26:02.353Z,2.34
2019-06-04T19:36:02.206Z,2.43
2019-06-04T19:46:02.262Z,2.47
2019-06-04T19:56:02.256Z,3.08
2019-06-04T20:06:02.311Z,2.95
2019-06-04T20:16:02.294Z,5.59
2019-06-04T20:26:02.247Z,4.97
2019-06-04T20:36:02.327Z,5.55
2019-06-04T20:46:03.631Z,4.67
2019-06-04T20:56:02.369Z,3.34
2019-06-04T21:06:02.340Z,3.14
2019-06-04T21:16:02.296Z,3.60
2019-06-04T21:26:02.331Z,3.29
2019-06-04T21:36:02.313Z,2.98
2019-06-04T21:46:02.364Z,2.57
2019-06-04T21:56:02.347Z,2.34
2019-06-04T22:06:02.311Z,2.09
2019-06-04T22:16:10.578Z,2.28
2019-06-04T22:26:02.335Z,2.58
2019-06-04T22:36:02.299Z,2.61
2019-06-04T22:46:18.538Z,2.14
2019-06-04T22:56:02.337Z,2.26
2019-06-04T23:06:02.786Z,2.13
2019-06-04T23:16:03.173Z,2.43
2019-06-04T23:26:02.331Z,2.97
2019-06-04T23:36:03.201Z,3.22
2019-06-04T23:46:02.420Z,3.00
2019-06-04T23:56:02.391Z,2.79
